Time;durP1;ratioP1;P1;durP2;ratioP2;P2;SDS_P1;SDS_P2;PMS_P1;PMS_P2;Temp;Humidity;BMP_temperature;BMP_pressure;BME280_temperature;BME280_humidity;BME280_pressure;Samples;Min_cycle;Max_cycle;Signal;HPM_P1;HPM_P2
2022/03/20 00:00:50;;;;;;;5.18;3.20;;;5.50;99.90;;;;;;6188570;23;20071;-79
2022/03/20 00:03:15;;;;;;;7.63;3.13;;;5.50;99.90;;;;;;6187898;23;20017;-79
2022/03/20 00:05:42;;;;;;;6.43;3.30;;;5.50;99.90;;;;;;6189771;23;20024;-79
2022/03/20 00:08:12;;;;;;;5.55;3.15;;;5.50;99.90;;;;;;6188209;23;20017;-79
2022/03/20 00:10:42;;;;;;;6.47;3.92;;;5.50;99.90;;;;;;6189200;23;20013;-80
2022/03/20 00:13:09;;;;;;;5.47;2.90;;;5.50;99.90;;;;;;6189318;23;20368;-80
2022/03/20 00:15:35;;;;;;;8.38;3.50;;;5.50;99.90;;;;;;6189745;23;20020;-79
2022/03/20 00:18:01;;;;;;;4.20;2.67;;;5.50;99.90;;;;;;6186356;23;20101;-79
2022/03/20 00:20:27;;;;;;;9.73;3.30;;;5.50;99.90;;;;;;6185594;23;20096;-79
2022/03/20 00:22:53;;;;;;;9.93;3.63;;;5.50;99.90;;;;;;6188165;23;20024;-79
2022/03/20 00:25:19;;;;;;;5.57;3.28;;;5.50;99.90;;;;;;6186790;23;20776;-79
2022/03/20 00:27:44;;;;;;;8.68;3.80;;;5.40;99.90;;;;;;6161824;23;20013;-79
2022/03/20 00:30:10;;;;;;;6.63;2.97;;;5.40;99.90;;;;;;6186034;23;20009;-79
2022/03/20 00:32:36;;;;;;;5.50;3.40;;;5.40;99.90;;;;;;6185704;23;20079;-79
2022/03/20 00:35:02;;;;;;;7.13;3.75;;;5.30;99.90;;;;;;6185452;23;20068;-79
2022/03/20 00:37:29;;;;;;;6.03;3.30;;;5.20;99.90;;;;;;6161997;23;20017;-79
2022/03/20 00:39:54;;;;;;;6.85;3.60;;;5.20;99.90;;;;;;6186905;23;20036;-79
2022/03/20 00:42:20;;;;;;;5.35;3.17;;;5.20;99.90;;;;;;6186909;23;20013;-79
2022/03/20 00:44:46;;;;;;;7.53;3.53;;;5.10;99.90;;;;;;6187605;23;20063;-79
2022/03/20 00:47:13;;;;;;;12.23;4.32;;;5.10;99.90;;;;;;6185514;23;20390;-79
2022/03/20 00:49:39;;;;;;;11.55;4.03;;;5.00;99.90;;;;;;6161346;23;20020;-79
2022/03/20 00:52:06;;;;;;;5.85;3.40;;;5.10;99.90;;;;;;6185287;23;20090;-79
2022/03/20 00:54:31;;;;;;;7.28;3.55;;;5.10;99.90;;;;;;6162044;23;20075;-79
2022/03/20 00:56:58;;;;;;;10.25;3.58;;;5.00;99.90;;;;;;6186865;23;20450;-79
2022/03/20 00:59:23;;;;;;;8.55;3.45;;;5.00;99.90;;;;;;6159980;23;20032;-82
2022/03/20 01:01:49;;;;;;;8.50;4.43;;;5.10;99.90;;;;;;6185466;23;20111;-79
2022/03/20 01:04:14;;;;;;;10.63;4.18;;;5.00;99.90;;;;;;6184628;23;20032;-82
2022/03/20 01:06:40;;;;;;;10.48;3.75;;;5.10;99.90;;;;;;6162323;23;20016;-79
2022/03/20 01:09:07;;;;;;;11.95;4.65;;;5.00;99.90;;;;;;6163720;23;20463;-80
2022/03/20 01:11:33;;;;;;;8.63;3.90;;;5.00;99.90;;;;;;6188687;23;20024;-80
2022/03/20 01:13:58;;;;;;;9.70;4.78;;;5.00;99.90;;;;;;6161972;23;20343;-81
2022/03/20 01:16:24;;;;;;;8.63;4.40;;;5.00;99.90;;;;;;6187006;23;20048;-80
2022/03/20 01:18:50;;;;;;;12.80;5.22;;;4.90;99.90;;;;;;6163883;23;20020;-81
2022/03/20 01:21:16;;;;;;;8.50;4.30;;;4.80;99.90;;;;;;6187434;23;20451;-80
2022/03/20 01:23:41;;;;;;;12.77;4.78;;;4.90;99.90;;;;;;6162673;23;20092;-79
2022/03/20 01:26:07;;;;;;;7.47;4.15;;;5.00;99.90;;;;;;6161242;23;20013;-80
2022/03/20 01:28:32;;;;;;;10.02;4.85;;;4.90;99.90;;;;;;6158057;23;20013;-80
2022/03/20 01:30:58;;;;;;;10.77;4.93;;;4.90;99.90;;;;;;6182390;23;20447;-80
2022/03/20 01:33:23;;;;;;;11.70;5.10;;;4.90;99.90;;;;;;6182855;23;20019;-80
2022/03/20 01:35:49;;;;;;;12.30;5.07;;;4.90;99.90;;;;;;6158225;23;20013;-80
2022/03/20 01:38:20;;;;;;;7.90;4.65;;;4.80;99.90;;;;;;6185506;23;20024;-80
2022/03/20 01:40:47;;;;;;;11.95;6.00;;;4.90;99.90;;;;;;6186552;23;20104;-80
2022/03/20 01:43:13;;;;;;;10.73;5.03;;;4.90;99.90;;;;;;6187445;23;20013;-80
2022/03/20 01:45:38;;;;;;;9.77;6.30;;;4.80;99.90;;;;;;6161089;23;20017;-80
2022/03/20 01:48:04;;;;;;;15.52;6.43;;;4.80;99.90;;;;;;6185155;23;20023;-79
2022/03/20 01:50:32;;;;;;;10.75;5.75;;;4.80;99.90;;;;;;6185016;23;20019;-80
2022/03/20 01:52:58;;;;;;;13.95;5.97;;;4.70;99.90;;;;;;6184419;23;20009;-80
2022/03/20 01:55:24;;;;;;;12.52;6.05;;;4.70;99.90;;;;;;6184670;23;20528;-80
2022/03/20 01:57:50;;;;;;;16.00;6.60;;;4.50;99.90;;;;;;6185209;23;20021;-79
2022/03/20 02:00:19;;;;;;;10.38;5.47;;;4.40;99.90;;;;;;6183963;23;20144;-80
2022/03/20 02:02:45;;;;;;;13.25;6.18;;;4.30;99.90;;;;;;6184297;23;20069;-79
2022/03/20 02:05:11;;;;;;;15.65;5.80;;;4.20;99.90;;;;;;6184856;23;20087;-80
2022/03/20 02:07:38;;;;;;;11.32;5.28;;;4.10;99.90;;;;;;6161254;23;20024;-80
2022/03/20 02:10:05;;;;;;;10.25;5.65;;;4.00;99.90;;;;;;6185035;23;20017;-80
2022/03/20 02:12:31;;;;;;;9.93;4.97;;;3.90;99.90;;;;;;6185488;23;20021;-80
2022/03/20 02:15:01;;;;;;;12.27;5.30;;;3.90;99.90;;;;;;6185163;23;20009;-80
2022/03/20 02:17:30;;;;;;;15.70;5.72;;;3.80;99.90;;;;;;6160391;23;20019;-80
2022/03/20 02:19:57;;;;;;;12.32;6.15;;;3.90;99.90;;;;;;6183780;23;20013;-80
2022/03/20 02:22:24;;;;;;;11.35;5.40;;;3.80;99.90;;;;;;6184951;23;20035;-80
2022/03/20 02:24:51;;;;;;;12.25;5.38;;;3.80;99.90;;;;;;6185087;23;20013;-79
2022/03/20 02:27:25;;;;;;;9.60;4.45;;;3.80;99.90;;;;;;6161051;23;20083;-80
2022/03/20 02:29:56;;;;;;;10.70;6.28;;;3.70;99.90;;;;;;6162473;23;20039;-79
2022/03/20 02:32:27;;;;;;;12.40;5.85;;;3.70;99.90;;;;;;6188079;23;20005;-79
2022/03/20 02:34:54;;;;;;;18.13;6.63;;;3.60;99.90;;;;;;6161935;23;20009;-79
2022/03/20 02:37:22;;;;;;;10.52;5.25;;;3.50;99.90;;;;;;6162383;23;20378;-79
2022/03/20 02:39:50;;;;;;;11.43;5.55;;;3.50;99.90;;;;;;6161912;23;20093;-79
2022/03/20 02:42:16;;;;;;;11.43;5.47;;;3.50;99.90;;;;;;6186982;23;20045;-79
2022/03/20 02:45:02;;;;;;;13.02;4.93;;;3.50;99.90;;;;;;6162429;23;20060;-79
2022/03/20 02:47:30;;;;;;;12.07;5.57;;;3.40;99.90;;;;;;6162385;23;20036;-80
2022/03/20 02:50:00;;;;;;;9.57;4.57;;;3.40;99.90;;;;;;6161822;23;20032;-80
2022/03/20 02:52:48;;;;;;;12.18;6.55;;;3.40;99.90;;;;;;6186916;23;20346;-80
2022/03/20 02:55:21;;;;;;;10.05;5.07;;;3.30;99.90;;;;;;6186862;23;20024;-80
2022/03/20 02:57:47;;;;;;;11.02;5.65;;;3.30;99.90;;;;;;6162245;23;20009;-80
2022/03/20 03:00:17;;;;;;;15.00;6.90;;;3.30;99.90;;;;;;6160485;23;20013;-80
2022/03/20 03:02:43;;;;;;;13.57;6.10;;;3.30;99.90;;;;;;6186893;23;20382;-80
2022/03/20 03:05:11;;;;;;;10.90;5.75;;;3.30;99.90;;;;;;6161881;23;20040;-80
2022/03/20 03:10:55;;;;;;;11.57;6.00;;;3.30;99.90;;;;;;6186238;23;20350;-80
2022/03/20 03:13:10;;;;;;;10.57;5.57;;;3.30;99.90;;;;;;6185586;23;20032;-80
2022/03/20 03:15:36;;;;;;;16.45;6.13;;;3.20;99.90;;;;;;6186474;23;20016;-80
2022/03/20 03:18:02;;;;;;;16.15;5.72;;;3.20;99.90;;;;;;6185842;23;20351;-80
2022/03/20 03:20:27;;;;;;;10.70;6.20;;;3.20;99.90;;;;;;6186078;23;20071;-80
2022/03/20 03:22:53;;;;;;;12.85;6.57;;;3.20;99.90;;;;;;6186093;23;20044;-80
2022/03/20 03:25:18;;;;;;;16.55;6.35;;;3.20;99.90;;;;;;6161677;23;20469;-80
2022/03/20 03:27:44;;;;;;;15.45;6.57;;;3.20;99.90;;;;;;6160192;23;20393;-80
2022/03/20 03:30:12;;;;;;;10.25;6.15;;;3.20;99.90;;;;;;6185430;23;20020;-80
2022/03/20 03:32:40;;;;;;;15.38;7.18;;;3.20;99.90;;;;;;6185493;23;20040;-80
2022/03/20 03:37:51;;;;;;;12.35;6.65;;;3.10;99.90;;;;;;6192706;23;20056;-79
2022/03/20 03:40:16;;;;;;;15.05;7.18;;;3.10;99.90;;;;;;6192747;23;20013;-79
2022/03/20 03:42:42;;;;;;;15.50;7.72;;;3.00;99.90;;;;;;6169819;23;20068;-79
2022/03/20 03:45:08;;;;;;;12.35;6.35;;;3.00;99.90;;;;;;6168972;23;20017;-80
2022/03/20 03:47:34;;;;;;;11.70;6.05;;;3.00;99.90;;;;;;6192649;23;20025;-80
2022/03/20 03:50:00;;;;;;;10.85;5.40;;;3.10;99.90;;;;;;6169249;23;20113;-80
2022/03/20 03:52:25;;;;;;;13.85;7.85;;;3.10;99.90;;;;;;6169239;23;20016;-80
2022/03/20 03:54:51;;;;;;;14.73;7.03;;;3.10;99.90;;;;;;6193071;23;20132;-79
2022/03/20 03:57:20;;;;;;;14.25;7.95;;;3.20;99.90;;;;;;6167990;23;20366;-79
2022/03/20 03:59:47;;;;;;;13.88;6.28;;;3.20;99.90;;;;;;6193809;23;20012;-80
2022/03/20 04:02:12;;;;;;;16.15;6.78;;;3.20;99.90;;;;;;6192791;23;20017;-80
2022/03/20 04:04:38;;;;;;;13.13;6.22;;;3.20;99.90;;;;;;6196776;23;20027;-80
2022/03/20 04:07:04;;;;;;;18.05;8.52;;;3.20;99.90;;;;;;6169743;23;20009;-82
2022/03/20 04:09:30;;;;;;;13.10;7.03;;;3.20;99.90;;;;;;6186017;23;20016;-82
2022/03/20 04:11:57;;;;;;;18.35;7.57;;;3.10;99.90;;;;;;6185969;23;20024;-79
2022/03/20 04:14:22;;;;;;;16.02;8.15;;;3.10;99.90;;;;;;6186061;23;20013;-79
2022/03/20 04:16:49;;;;;;;13.35;6.90;;;3.20;99.90;;;;;;6163530;23;20020;-79
2022/03/20 04:19:14;;;;;;;14.60;7.47;;;3.20;99.90;;;;;;6163607;23;20017;-79
2022/03/20 04:21:40;;;;;;;14.63;6.22;;;3.10;99.90;;;;;;6189372;23;20373;-80
2022/03/20 04:24:07;;;;;;;13.93;8.05;;;3.10;99.90;;;;;;6192228;23;20017;-79
2022/03/20 04:26:34;;;;;;;13.90;7.38;;;3.10;99.90;;;;;;6185686;23;20458;-79
2022/03/20 04:29:00;;;;;;;14.85;7.18;;;3.10;99.90;;;;;;6187685;23;20084;-80
2022/03/20 04:31:26;;;;;;;14.18;7.35;;;3.10;99.90;;;;;;6186356;23;20020;-82
2022/03/20 04:33:54;;;;;;;17.45;8.20;;;3.10;99.90;;;;;;6186640;23;20005;-80
2022/03/20 04:36:22;;;;;;;16.42;8.00;;;3.10;99.90;;;;;;6186724;23;20075;-82
2022/03/20 04:38:48;;;;;;;18.90;8.02;;;3.10;99.90;;;;;;6189089;23;20024;-82
2022/03/20 04:41:13;;;;;;;14.55;6.30;;;3.00;99.90;;;;;;6188550;23;20020;-81
2022/03/20 04:43:40;;;;;;;16.90;8.20;;;3.10;99.90;;;;;;6187412;23;20028;-80
2022/03/20 04:46:06;;;;;;;16.95;7.57;;;3.10;99.90;;;;;;6184131;23;20057;-79
2022/03/20 04:59:28;;;;;;;17.40;9.35;;;2.90;99.90;;;;;;6188216;23;20083;-81
2022/03/20 05:01:53;;;;;;;22.42;9.30;;;2.90;99.90;;;;;;6186954;23;20017;-80
2022/03/20 05:04:19;;;;;;;18.77;9.13;;;2.90;99.90;;;;;;6184843;23;20028;-81
2022/03/20 05:06:45;;;;;;;19.08;9.10;;;3.00;99.90;;;;;;6185802;23;20017;-80
2022/03/20 05:14:40;;;;;;;17.08;7.97;;;2.80;99.90;;;;;;6185709;23;20052;-80
2022/03/20 05:17:09;;;;;;;20.90;9.77;;;2.80;99.90;;;;;;6161399;23;20516;-80
2022/03/20 05:19:40;;;;;;;18.85;9.45;;;2.80;99.90;;;;;;6185855;23;20024;-80
2022/03/20 05:22:09;;;;;;;18.38;8.57;;;2.80;99.90;;;;;;6185768;23;20044;-79
2022/03/20 05:24:35;;;;;;;19.58;8.70;;;2.80;99.90;;;;;;6186157;23;20086;-80
2022/03/20 05:27:02;;;;;;;18.40;8.38;;;2.80;99.90;;;;;;6161961;23;20053;-80
2022/03/20 05:29:27;;;;;;;17.60;9.10;;;2.80;99.90;;;;;;6160603;23;20023;-79
2022/03/20 05:31:56;;;;;;;23.23;10.10;;;2.80;99.90;;;;;;6159629;23;20013;-79
2022/03/20 05:34:22;;;;;;;24.35;10.80;;;2.80;99.90;;;;;;6163941;23;20088;-78
2022/03/20 05:36:48;;;;;;;17.55;9.50;;;2.70;99.90;;;;;;6190752;23;20088;-78
2022/03/20 05:39:14;;;;;;;13.88;8.45;;;2.70;99.90;;;;;;6165148;23;20017;-78
2022/03/20 05:41:49;;;;;;;16.80;9.23;;;2.70;99.90;;;;;;6168760;23;20354;-79
2022/03/20 05:44:16;;;;;;;21.52;9.45;;;2.70;99.90;;;;;;6190573;23;20015;-79
2022/03/20 05:46:46;;;;;;;20.70;9.38;;;2.60;99.90;;;;;;6167013;23;20048;-78
2022/03/20 05:49:18;;;;;;;17.10;9.05;;;2.70;99.90;;;;;;6164867;23;20020;-79
2022/03/20 05:51:46;;;;;;;25.58;9.57;;;2.60;99.90;;;;;;6165664;23;20024;-79
2022/03/20 05:54:12;;;;;;;17.45;9.43;;;2.70;99.90;;;;;;6189866;23;20013;-79
2022/03/20 05:59:23;;;;;;;18.85;10.70;;;2.70;99.90;;;;;;6190058;23;20093;-79
2022/03/20 06:01:52;;;;;;;16.67;9.55;;;2.70;99.90;;;;;;6164909;23;20021;-79
2022/03/20 06:04:18;;;;;;;21.63;10.73;;;2.70;99.90;;;;;;6191118;23;20013;-79
2022/03/20 06:06:44;;;;;;;17.55;8.48;;;2.80;99.90;;;;;;6188800;23;20017;-78
2022/03/20 06:09:10;;;;;;;19.48;9.88;;;2.70;99.90;;;;;;6191161;23;20076;-79
2022/03/20 06:11:35;;;;;;;18.38;10.75;;;2.80;99.90;;;;;;6191089;23;20013;-78
2022/03/20 06:14:02;;;;;;;17.65;9.60;;;2.80;99.90;;;;;;6163855;23;20013;-78
2022/03/20 06:16:29;;;;;;;22.52;10.63;;;2.80;99.90;;;;;;6163635;23;20017;-79
2022/03/20 06:18:55;;;;;;;19.52;10.30;;;2.70;99.90;;;;;;6190631;23;20013;-80
2022/03/20 06:21:22;;;;;;;23.13;10.00;;;2.70;99.90;;;;;;6189513;23;20324;-79
2022/03/20 06:23:48;;;;;;;20.88;10.00;;;2.70;99.90;;;;;;6189391;23;20084;-78
2022/03/20 06:26:14;;;;;;;24.08;10.48;;;2.70;99.90;;;;;;6164419;23;20021;-81
2022/03/20 06:28:40;;;;;;;21.23;10.35;;;2.70;99.90;;;;;;6191588;23;20017;-80
2022/03/20 06:31:10;;;;;;;23.33;10.05;;;2.70;99.90;;;;;;6189196;23;20013;-79
2022/03/20 06:33:37;;;;;;;15.75;8.85;;;2.80;99.90;;;;;;6189088;23;20019;-79
2022/03/20 06:36:04;;;;;;;15.38;7.80;;;2.80;99.90;;;;;;6165245;23;20016;-81
2022/03/20 06:38:30;;;;;;;19.33;9.68;;;2.80;99.90;;;;;;6189154;23;20024;-79
2022/03/20 06:40:59;;;;;;;19.50;10.60;;;2.90;99.90;;;;;;6188737;23;20508;-79
2022/03/20 06:43:25;;;;;;;18.85;9.18;;;2.90;99.90;;;;;;6163657;23;20013;-78
2022/03/20 06:45:52;;;;;;;21.10;10.65;;;2.90;99.90;;;;;;6164777;23;20009;-79
2022/03/20 06:48:18;;;;;;;17.63;9.30;;;3.00;99.90;;;;;;6190764;23;20013;-79
2022/03/20 06:50:44;;;;;;;17.60;9.68;;;3.10;99.90;;;;;;6192276;23;20019;-79
2022/03/20 06:53:11;;;;;;;21.55;10.93;;;3.10;99.90;;;;;;6167061;23;20013;-80
2022/03/20 06:55:37;;;;;;;19.02;9.85;;;3.20;99.90;;;;;;6192273;23;20009;-80
2022/03/20 06:58:03;;;;;;;19.13;8.55;;;3.20;99.90;;;;;;6191403;23;20044;-79
2022/03/20 07:00:29;;;;;;;21.08;10.85;;;3.20;99.90;;;;;;6191022;23;20436;-79
2022/03/20 07:02:56;;;;;;;20.33;10.15;;;3.30;99.90;;;;;;6192507;23;20009;-79
2022/03/20 07:05:22;;;;;;;23.63;11.85;;;3.30;99.90;;;;;;6193159;23;20017;-79
2022/03/20 07:07:50;;;;;;;20.00;10.93;;;3.40;99.90;;;;;;6167329;23;20071;-79
2022/03/20 07:10:19;;;;;;;24.80;10.68;;;3.50;99.90;;;;;;6191848;23;20020;-79
2022/03/20 07:12:45;;;;;;;23.20;11.40;;;3.60;99.90;;;;;;6167801;23;20076;-79
2022/03/20 07:15:11;;;;;;;18.00;8.60;;;3.70;99.90;;;;;;6169758;23;20033;-79
2022/03/20 07:17:37;;;;;;;22.92;10.18;;;3.80;99.90;;;;;;6193199;23;20017;-78
2022/03/20 07:20:09;;;;;;;22.85;10.93;;;3.90;99.90;;;;;;6166448;23;20017;-80
2022/03/20 07:22:35;;;;;;;22.17;11.52;;;4.00;99.90;;;;;;6186409;23;20013;-83
2022/03/20 07:29:29;;;;;;;25.08;11.77;;;4.20;99.90;;;;;;6184417;23;20021;-83
2022/03/20 07:30:30;;;;;;;22.48;11.30;;;4.20;99.90;;;;;;6185362;23;20020;-81
2022/03/20 07:32:56;;;;;;;20.80;11.20;;;4.10;99.90;;;;;;6189017;23;20401;-84
2022/03/20 07:35:21;;;;;;;21.48;11.60;;;4.00;99.90;;;;;;6164321;23;20092;-83
2022/03/20 07:37:46;;;;;;;23.73;11.57;;;4.00;99.90;;;;;;6189247;23;20017;-85
2022/03/20 07:40:12;;;;;;;20.55;11.05;;;4.00;99.90;;;;;;6186426;23;20021;-81
2022/03/20 07:42:38;;;;;;;20.58;10.10;;;4.00;99.90;;;;;;6189414;23;20031;-83
2022/03/20 07:45:04;;;;;;;25.38;11.00;;;4.00;99.90;;;;;;6187900;23;20079;-85
2022/03/20 07:47:30;;;;;;;22.35;11.20;;;4.00;99.90;;;;;;6190259;23;20024;-81
2022/03/20 07:49:55;;;;;;;20.45;11.20;;;4.10;99.90;;;;;;6185795;23;20350;-84
2022/03/20 07:52:22;;;;;;;22.45;11.57;;;4.10;99.90;;;;;;6162618;23;20028;-83
2022/03/20 07:54:48;;;;;;;24.52;11.32;;;4.20;99.90;;;;;;6188899;23;20525;-82
2022/03/20 07:57:14;;;;;;;20.58;11.00;;;4.30;99.90;;;;;;6190148;23;20458;-83
2022/03/20 07:59:41;;;;;;;25.48;12.45;;;4.40;99.90;;;;;;6161647;23;20017;-83
2022/03/20 08:02:06;;;;;;;24.42;11.45;;;4.60;99.90;;;;;;6184885;23;20049;-85
2022/03/20 08:04:32;;;;;;;20.55;10.75;;;4.80;99.90;;;;;;6183748;23;20017;-86
2022/03/20 08:06:57;;;;;;;29.38;13.43;;;5.00;99.90;;;;;;6185491;23;20390;-82
2022/03/20 08:09:27;;;;;;;28.13;13.90;;;5.50;99.90;;;;;;6163222;23;20087;-82
2022/03/20 08:11:53;;;;;;;22.00;10.75;;;6.00;99.90;;;;;;6186516;23;20061;-83
2022/03/20 08:14:19;;;;;;;21.48;12.23;;;6.30;99.90;;;;;;6185533;23;20443;-83
2022/03/20 08:16:44;;;;;;;22.73;12.95;;;6.50;99.90;;;;;;6185291;23;20017;-85
2022/03/20 08:19:11;;;;;;;21.85;12.10;;;6.60;99.90;;;;;;6183463;23;20013;-85
2022/03/20 08:21:39;;;;;;;22.08;12.73;;;6.70;99.90;;;;;;6183492;23;20013;-82
2022/03/20 08:24:05;;;;;;;22.08;11.95;;;7.00;99.90;;;;;;6186154;23;20420;-83
2022/03/20 08:26:33;;;;;;;26.15;12.70;;;7.20;99.90;;;;;;6161066;23;20013;-82
2022/03/20 08:29:00;;;;;;;25.25;12.45;;;7.20;99.90;;;;;;6185405;23;20071;-85
2022/03/20 08:31:27;;;;;;;23.80;11.98;;;7.10;99.90;;;;;;6161996;23;20517;-82
2022/03/20 08:33:52;;;;;;;21.35;11.38;;;7.00;99.90;;;;;;6188297;23;20009;-83
2022/03/20 08:36:18;;;;;;;26.13;12.85;;;6.90;99.90;;;;;;6185637;23;20577;-82
2022/03/20 08:38:43;;;;;;;22.48;11.43;;;6.80;99.90;;;;;;6184157;23;20100;-84
2022/03/20 08:41:09;;;;;;;23.15;11.85;;;6.90;99.90;;;;;;6157954;23;20043;-85
2022/03/20 08:43:35;;;;;;;25.02;11.77;;;6.80;99.90;;;;;;6182898;23;20013;-85
2022/03/20 08:46:00;;;;;;;24.80;13.00;;;6.90;99.90;;;;;;6159024;23;20040;-84
2022/03/20 08:48:26;;;;;;;26.08;13.80;;;7.00;99.90;;;;;;6184190;23;20063;-83
2022/03/20 08:50:51;;;;;;;22.73;11.82;;;7.20;99.80;;;;;;6183994;23;20005;-84
2022/03/20 08:53:20;;;;;;;27.38;12.00;;;7.20;98.50;;;;;;6183472;23;20009;-83
2022/03/20 08:55:47;;;;;;;27.13;12.13;;;7.40;99.20;;;;;;6185312;23;20044;-83
2022/03/20 08:58:13;;;;;;;27.23;12.88;;;7.50;97.60;;;;;;6185649;23;20013;-83
2022/03/20 09:00:41;;;;;;;23.73;12.65;;;7.70;97.20;;;;;;6183711;23;20013;-84
2022/03/20 09:03:07;;;;;;;26.88;13.02;;;7.90;90.60;;;;;;6183436;23;20024;-84
2022/03/20 09:05:33;;;;;;;28.52;11.98;;;8.10;92.70;;;;;;6183300;23;20012;-83
2022/03/20 09:07:59;;;;;;;25.17;11.82;;;8.30;92.90;;;;;;6184993;23;20091;-83
2022/03/20 09:10:25;;;;;;;25.00;13.05;;;8.30;92.40;;;;;;6184835;23;20060;-84
2022/03/20 09:12:55;;;;;;;23.17;12.82;;;8.30;91.60;;;;;;6184744;23;20013;-83
2022/03/20 09:15:22;;;;;;;25.52;13.93;;;8.30;89.40;;;;;;6183302;23;20005;-83
2022/03/20 09:20:35;;;;;;;22.73;12.00;;;8.50;88.80;;;;;;6183456;23;20027;-84
2022/03/20 09:23:01;;;;;;;27.77;14.45;;;9.00;87.80;;;;;;6183743;23;20024;-84
2022/03/20 09:25:27;;;;;;;25.52;13.32;;;9.10;83.40;;;;;;6158736;23;20017;-83
2022/03/20 09:27:52;;;;;;;28.20;13.65;;;9.30;83.70;;;;;;6183867;23;20016;-84
2022/03/20 09:30:22;;;;;;;23.15;13.73;;;9.30;82.70;;;;;;6183966;23;20013;-84
2022/03/20 09:32:48;;;;;;;23.92;14.13;;;9.30;70.20;;;;;;6185174;23;20009;-83
2022/03/20 09:35:14;;;;;;;25.73;13.27;;;9.40;74.10;;;;;;6184730;23;20016;-83
2022/03/20 09:37:40;;;;;;;27.02;14.20;;;9.30;76.60;;;;;;6185165;23;20084;-83
2022/03/20 09:40:06;;;;;;;28.67;12.32;;;9.50;74.40;;;;;;6185015;23;20024;-83
2022/03/20 09:42:34;;;;;;;21.45;12.07;;;9.70;72.60;;;;;;6186274;23;20012;-83
2022/03/20 09:45:00;;;;;;;25.60;13.93;;;9.80;72.80;;;;;;6185781;23;20390;-83
2022/03/20 09:47:25;;;;;;;26.27;14.57;;;9.70;74.30;;;;;;6186793;23;20024;-83
2022/03/20 09:49:53;;;;;;;25.63;13.27;;;9.70;73.30;;;;;;6186080;23;20503;-83
2022/03/20 09:52:19;;;;;;;25.13;13.95;;;9.80;71.60;;;;;;6185382;23;20020;-83
2022/03/20 09:54:45;;;;;;;23.42;12.35;;;10.10;72.10;;;;;;6185661;23;20559;-83
2022/03/20 09:57:11;;;;;;;27.45;15.02;;;10.30;64.90;;;;;;6187270;23;20084;-82
2022/03/20 09:59:39;;;;;;;25.00;14.13;;;10.20;70.20;;;;;;6186700;23;20013;-82
2022/03/20 10:02:06;;;;;;;25.48;14.20;;;10.30;63.40;;;;;;6188602;23;20028;-83
2022/03/20 10:04:34;;;;;;;19.42;12.20;;;10.50;68.90;;;;;;6190227;23;20017;-82
2022/03/20 10:07:00;;;;;;;23.65;14.02;;;10.50;62.20;;;;;;6191347;23;20346;-82
2022/03/20 10:09:26;;;;;;;25.42;14.35;;;10.50;63.10;;;;;;6189143;23;20012;-82
2022/03/20 10:11:54;;;;;;;26.30;13.63;;;10.50;67.00;;;;;;6183641;23;20024;-81
2022/03/20 10:14:29;;;;;;;27.90;13.38;;;10.40;63.20;;;;;;6183497;23;20323;-83
2022/03/20 10:17:08;;;;;;;27.70;14.88;;;10.40;62.10;;;;;;6160582;23;20024;-83
2022/03/20 10:19:34;;;;;;;28.67;14.80;;;10.20;61.00;;;;;;6184784;23;20049;-81
2022/03/20 10:22:08;;;;;;;26.45;14.50;;;10.10;66.60;;;;;;6185184;23;20020;-80
2022/03/20 10:24:39;;;;;;;24.65;14.05;;;10.00;63.30;;;;;;6160649;23;20095;-80
2022/03/20 10:27:04;;;;;;;24.75;14.00;;;9.80;65.80;;;;;;6159970;23;20346;-81
2022/03/20 10:29:35;;;;;;;23.63;13.40;;;9.70;68.20;;;;;;6158157;23;20092;-81
2022/03/20 10:32:10;;;;;;;29.05;12.82;;;9.70;66.80;;;;;;6183962;23;20013;-81
2022/03/20 10:34:53;;;;;;;24.27;13.43;;;9.60;65.20;;;;;;6158719;23;20538;-79
2022/03/20 10:37:21;;;;;;;23.23;13.00;;;9.60;63.70;;;;;;6161605;23;20023;-81
2022/03/20 10:39:46;;;;;;;30.05;15.98;;;9.50;68.10;;;;;;6183039;23;20458;-81
2022/03/20 10:42:15;;;;;;;28.45;14.65;;;9.50;70.60;;;;;;6183568;23;20096;-82
2022/03/20 10:44:41;;;;;;;30.23;14.68;;;9.70;70.70;;;;;;6183752;23;20038;-80
2022/03/20 10:47:16;;;;;;;28.92;14.18;;;9.80;69.30;;;;;;6158958;23;20152;-80
2022/03/20 10:50:02;;;;;;;28.17;14.85;;;9.90;69.30;;;;;;6159489;23;20009;-80
2022/03/20 10:52:29;;;;;;;23.77;14.52;;;10.00;64.80;;;;;;6188182;23;20009;-79
2022/03/20 10:54:55;;;;;;;25.55;13.98;;;10.00;69.00;;;;;;6187662;23;20024;-80
2022/03/20 10:57:21;;;;;;;27.67;14.02;;;10.10;62.30;;;;;;6188058;23;20009;-80
2022/03/20 11:00:16;;;;;;;28.15;14.35;;;10.10;66.10;;;;;;6184552;23;20129;-80
2022/03/20 11:02:42;;;;;;;30.25;15.82;;;10.10;63.30;;;;;;6168253;23;20017;-80
2022/03/20 11:05:08;;;;;;;28.27;15.27;;;10.10;67.10;;;;;;6184972;23;20020;-80
2022/03/20 11:07:35;;;;;;;26.27;15.43;;;10.00;65.40;;;;;;6160255;23;20027;-82
2022/03/20 11:10:02;;;;;;;28.05;13.95;;;9.90;64.50;;;;;;6186148;23;20009;-80
2022/03/20 11:12:35;;;;;;;27.65;14.25;;;9.90;66.10;;;;;;6185698;23;20013;-80
2022/03/20 11:15:04;;;;;;;27.50;14.32;;;10.00;65.40;;;;;;6186502;23;20028;-80
2022/03/20 11:17:44;;;;;;;27.30;14.63;;;10.00;65.80;;;;;;6187157;23;20343;-81
2022/03/20 11:20:12;;;;;;;31.23;15.82;;;10.10;65.60;;;;;;6187221;23;20080;-80
2022/03/20 11:22:48;;;;;;;28.35;15.45;;;10.30;66.60;;;;;;6161723;23;20010;-78
2022/03/20 11:25:17;;;;;;;25.48;14.05;;;10.40;61.30;;;;;;6187229;23;20458;-80
2022/03/20 11:27:50;;;;;;;26.00;15.20;;;10.50;64.10;;;;;;6186524;23;20016;-79
2022/03/20 11:30:16;;;;;;;28.65;15.98;;;10.50;63.70;;;;;;6187936;23;20086;-80
2022/03/20 11:32:43;;;;;;;44.08;19.90;;;10.50;63.50;;;;;;6186964;23;20032;-80
2022/03/20 11:35:09;;;;;;;28.60;15.02;;;10.60;62.20;;;;;;6186245;23;20342;-80
2022/03/20 11:37:43;;;;;;;46.95;20.80;;;10.60;62.40;;;;;;6185417;23;20009;-79
2022/03/20 11:40:25;;;;;;;30.20;15.10;;;10.60;59.30;;;;;;6184773;23;20009;-80
2022/03/20 11:43:22;;;;;;;30.63;15.25;;;10.70;60.40;;;;;;6187401;23;20044;-81
2022/03/20 11:46:21;;;;;;;30.90;15.82;;;10.70;60.10;;;;;;6187121;23;20080;-80
2022/03/20 11:49:17;;;;;;;27.92;14.18;;;10.70;57.80;;;;;;6187135;23;20031;-79
2022/03/20 11:52:06;;;;;;;29.42;14.63;;;10.60;58.60;;;;;;6185640;23;20017;-79
2022/03/20 11:54:40;;;;;;;32.13;15.52;;;10.70;60.90;;;;;;6188083;23;20019;-80
2022/03/20 11:57:30;;;;;;;27.98;15.32;;;10.70;59.90;;;;;;6183253;23;20024;-79
2022/03/20 12:00:11;;;;;;;29.25;15.85;;;10.70;59.50;;;;;;6184021;23;20013;-79
2022/03/20 12:03:05;;;;;;;33.72;16.58;;;10.80;60.40;;;;;;6159891;23;20009;-80
2022/03/20 12:06:15;;;;;;;31.15;15.63;;;10.80;59.40;;;;;;6185960;23;20316;-81
2022/03/20 12:08:55;;;;;;;30.05;17.70;;;10.90;60.90;;;;;;6095949;23;20150;-77
2022/03/20 12:11:24;;;;;;;29.13;15.30;;;10.80;59.20;;;;;;6096600;23;20022;-80
2022/03/20 12:14:03;;;;;;;30.58;16.60;;;10.80;61.10;;;;;;6155544;23;20017;-80
2022/03/20 12:16:50;;;;;;;30.25;15.32;;;10.90;61.00;;;;;;6186233;23;20040;-80
2022/03/20 12:19:34;;;;;;;30.02;16.13;;;11.00;59.40;;;;;;6187004;23;20017;-80
2022/03/20 12:22:04;;;;;;;31.58;16.58;;;11.10;59.70;;;;;;6189063;23;20064;-81
2022/03/20 12:24:35;;;;;;;27.88;15.50;;;11.10;59.10;;;;;;6185956;23;20013;-80
2022/03/20 12:27:22;;;;;;;28.65;15.63;;;11.10;59.40;;;;;;6162927;23;20458;-80
2022/03/20 12:29:53;;;;;;;29.65;16.05;;;11.00;57.90;;;;;;6162397;23;20104;-80
2022/03/20 12:32:20;;;;;;;31.50;15.95;;;11.00;61.10;;;;;;6160236;23;20017;-80
2022/03/20 12:35:08;;;;;;;27.60;16.50;;;11.00;60.40;;;;;;6160208;23;20016;-80
2022/03/20 12:37:37;;;;;;;27.80;16.50;;;11.00;58.00;;;;;;6185383;23;20027;-80
2022/03/20 12:40:02;;;;;;;30.75;17.30;;;11.10;61.10;;;;;;6163153;23;20439;-79
2022/03/20 12:42:32;;;;;;;30.10;16.27;;;11.10;61.10;;;;;;6186275;23;20017;-80
2022/03/20 12:44:59;;;;;;;27.98;15.32;;;11.20;61.20;;;;;;6184416;23;20017;-80
2022/03/20 12:47:27;;;;;;;40.60;17.95;;;11.20;60.60;;;;;;6187590;23;20017;-81
2022/03/20 12:50:00;;;;;;;29.30;16.80;;;11.20;60.00;;;;;;6164875;23;20377;-81
2022/03/20 12:52:28;;;;;;;28.50;16.50;;;11.20;60.00;;;;;;6187894;23;20024;-80
2022/03/20 12:54:59;;;;;;;30.02;16.45;;;11.00;58.90;;;;;;6160443;23;20048;-81
2022/03/20 12:57:47;;;;;;;43.28;21.10;;;10.90;59.40;;;;;;6189379;23;20024;-81
2022/03/20 13:00:26;;;;;;;37.75;18.50;;;10.90;60.90;;;;;;6167006;23;20092;-81
2022/03/20 13:03:08;;;;;;;31.77;15.93;;;10.90;61.10;;;;;;6165207;23;20152;-81
2022/03/20 13:05:46;;;;;;;31.98;16.75;;;10.80;61.80;;;;;;6191458;23;20048;-80
2022/03/20 13:08:31;;;;;;;30.17;14.90;;;10.70;61.60;;;;;;6162096;23;20013;-81
2022/03/20 13:14:00;;;;;;;33.97;16.60;;;10.50;61.80;;;;;;6188960;23;20724;-81
2022/03/20 13:16:26;;;;;;;30.50;16.58;;;10.50;62.80;;;;;;6165004;23;20004;-81
2022/03/20 13:18:52;;;;;;;33.30;17.63;;;10.50;62.50;;;;;;6186358;23;20012;-80
2022/03/20 13:21:18;;;;;;;32.78;17.65;;;10.50;62.50;;;;;;6186320;23;20443;-79